createdAt,value
2022-08-22T00:00:37.786Z,99.9
2022-08-22T00:02:39.271Z,99.9
2022-08-22T00:02:49.564Z,99.9
2022-08-22T00:02:57.376Z,99.9
2022-08-22T00:04:40.731Z,99.9
2022-08-22T00:10:45.060Z,99.9
2022-08-22T00:12:49.817Z,99.9
2022-08-22T00:17:55.264Z,99.9
2022-08-22T00:19:56.606Z,99.9
2022-08-22T00:21:58.065Z,99.9
2022-08-22T00:23:59.534Z,99.9
2022-08-22T00:26:04.354Z,99.9
2022-08-22T00:28:05.813Z,99.9
2022-08-22T00:30:07.609Z,99.9
2022-08-22T00:32:08.774Z,99.9
2022-08-22T00:34:10.230Z,99.9
2022-08-22T00:36:11.683Z,99.9
2022-08-22T00:38:13.166Z,99.9
2022-08-22T00:40:18.046Z,99.9
2022-08-22T00:42:31.637Z,99.9
2022-08-22T00:44:20.888Z,99.9
2022-08-22T00:46:22.368Z,99.9
2022-08-22T00:48:23.851Z,99.9
2022-08-22T00:50:25.318Z,99.9
2022-08-22T00:52:26.819Z,99.9
2022-08-22T00:56:34.586Z,99.9
2022-08-22T00:58:36.084Z,99.9
2022-08-22T01:00:37.542Z,99.9
2022-08-22T01:02:39.009Z,99.9
2022-08-22T01:04:40.463Z,99.9
2022-08-22T01:06:41.955Z,99.9
2022-08-22T01:08:46.716Z,99.9
2022-08-22T01:10:48.202Z,99.9
2022-08-22T01:12:49.660Z,99.9
2022-08-22T01:13:52.059Z,99.9
2022-08-22T01:15:53.540Z,99.9
2022-08-22T01:19:56.482Z,99.9
2022-08-22T01:24:02.730Z,99.9
2022-08-22T01:26:04.201Z,99.9
2022-08-22T01:28:05.691Z,99.9
2022-08-22T01:30:07.169Z,99.9
2022-08-22T01:32:08.597Z,99.9
2022-08-22T01:34:12.854Z,99.9
2022-08-22T01:38:16.312Z,99.9
2022-08-22T01:40:17.874Z,99.9
2022-08-22T01:42:19.268Z,99.9
2022-08-22T01:46:22.207Z,99.9
2022-08-22T01:50:28.485Z,99.9
2022-08-22T01:52:29.932Z,99.9
2022-08-22T01:54:31.389Z,99.9
2022-08-22T01:56:32.880Z,99.9
2022-08-22T01:58:34.325Z,99.9
2022-08-22T02:02:37.298Z,99.9
2022-08-22T02:04:42.047Z,99.9
2022-08-22T02:06:43.538Z,99.9
2022-08-22T02:08:44.990Z,99.9
2022-08-22T02:13:13.353Z,99.9
2022-08-22T02:25:25.476Z,99.9
2022-08-22T02:27:27.168Z,99.9
2022-08-22T02:29:28.417Z,99.9
2022-08-22T02:35:36.118Z,99.9
2022-08-22T02:37:37.577Z,99.9
2022-08-22T02:41:40.539Z,99.9
2022-08-22T02:43:42.014Z,99.9
2022-08-22T02:45:46.785Z,99.9
2022-08-22T02:47:48.257Z,99.9
2022-08-22T02:49:49.720Z,99.9
2022-08-22T02:51:51.215Z,99.9
2022-08-22T02:53:52.677Z,99.9
2022-08-22T03:02:01.886Z,99.9
2022-08-22T03:04:03.366Z,99.9
2022-08-22T03:05:05.739Z,99.9
2022-08-22T03:07:07.194Z,99.9
2022-08-22T03:09:08.660Z,99.9
2022-08-22T03:11:10.157Z,99.9
2022-08-22T03:13:14.890Z,99.9
2022-08-22T03:15:16.349Z,99.9
2022-08-22T03:17:17.852Z,99.9
2022-08-22T03:21:20.813Z,99.9
2022-08-22T03:23:22.291Z,99.9
2022-08-22T03:25:23.742Z,99.9
2022-08-22T03:27:33.170Z,99.9
2022-08-22T03:29:30.006Z,99.9
2022-08-22T03:31:31.446Z,99.9
2022-08-22T03:39:37.359Z,99.9
2022-08-22T03:41:42.095Z,99.9
2022-08-22T03:43:43.537Z,99.9
2022-08-22T03:47:46.542Z,99.9
2022-08-22T03:53:50.919Z,99.9
2022-08-22T03:57:57.053Z,99.9
2022-08-22T03:59:58.457Z,99.9
2022-08-22T04:01:00.927Z,99.9
2022-08-22T04:03:02.322Z,99.9
2022-08-22T04:05:03.785Z,99.9
2022-08-22T04:07:05.424Z,99.9
2022-08-22T04:09:10.038Z,99.9
2022-08-22T04:11:11.481Z,99.9
2022-08-22T04:17:15.878Z,99.9
2022-08-22T04:19:17.310Z,99.9
2022-08-22T04:21:18.784Z,99.9
2022-08-22T04:23:23.560Z,99.9
2022-08-22T04:25:25.042Z,99.9
2022-08-22T04:27:26.504Z,99.9
2022-08-22T04:29:27.968Z,99.9
2022-08-22T04:33:30.903Z,99.9
2022-08-22T04:37:37.154Z,99.9
2022-08-22T04:39:38.720Z,99.9
2022-08-22T04:41:40.102Z,99.9
2022-08-22T04:47:47.216Z,99.9
2022-08-22T04:49:45.955Z,99.9
2022-08-22T04:51:50.770Z,99.9
2022-08-22T04:53:52.237Z,99.9
2022-08-22T04:55:53.678Z,99.9
2022-08-22T04:56:56.094Z,99.9
2022-08-22T04:58:57.564Z,99.9
2022-08-22T05:00:59.002Z,99.9
2022-08-22T05:03:00.483Z,99.9
2022-08-22T05:05:05.262Z,99.9
2022-08-22T05:07:06.718Z,99.9
2022-08-22T05:09:10.062Z,99.9
2022-08-22T05:11:09.649Z,99.9
2022-08-22T05:13:11.099Z,99.9
2022-08-22T05:15:12.569Z,99.9
2022-08-22T05:19:24.999Z,99.9
2022-08-22T05:21:20.276Z,99.9
2022-08-22T05:29:26.309Z,99.9
2022-08-22T05:31:27.616Z,99.9
2022-08-22T05:39:36.898Z,99.9
2022-08-22T05:41:38.221Z,99.9
2022-08-22T05:43:39.738Z,99.9
2022-08-22T05:45:41.155Z,99.9
2022-08-22T05:47:45.936Z,99.9
2022-08-22T05:49:47.409Z,99.9
2022-08-22T05:56:17.079Z,99.9
2022-08-22T05:58:18.575Z,99.9
2022-08-22T06:00:23.352Z,99.9
2022-08-22T06:02:24.800Z,99.9
2022-08-22T06:04:26.290Z,99.9
2022-08-22T06:06:27.735Z,99.9
2022-08-22T06:08:29.196Z,99.9
2022-08-22T06:10:30.656Z,99.9
2022-08-22T06:12:32.117Z,99.9
2022-08-22T06:14:36.889Z,99.9
2022-08-22T06:16:38.349Z,99.9
2022-08-22T06:18:39.822Z,99.9
2022-08-22T06:20:41.323Z,99.9
2022-08-22T06:22:42.721Z,99.9
2022-08-22T06:24:44.172Z,99.9
2022-08-22T06:26:48.610Z,99.9
2022-08-22T06:28:54.715Z,99.9
2022-08-22T06:30:51.879Z,99.9
2022-08-22T06:32:59.351Z,99.9
2022-08-22T06:34:54.757Z,99.9
2022-08-22T06:36:56.208Z,99.9
2022-08-22T06:38:57.690Z,99.9
2022-08-22T06:40:59.129Z,99.9
2022-08-22T06:43:03.854Z,99.9
2022-08-22T06:45:06.944Z,99.9
2022-08-22T06:47:08.280Z,99.8
2022-08-22T06:48:10.641Z,99.8
2022-08-22T06:50:13.541Z,99.7
2022-08-22T06:52:13.543Z,99.5
2022-08-22T06:54:14.978Z,99.2
2022-08-22T06:56:19.749Z,98.1
2022-08-22T06:58:21.178Z,97.6
2022-08-22T07:00:22.643Z,97.1
2022-08-22T07:02:24.057Z,96.3
2022-08-22T07:04:25.591Z,95.7
2022-08-22T07:06:26.950Z,94.9
2022-08-22T07:08:28.432Z,94.5
2022-08-22T07:10:33.182Z,93.1
2022-08-22T07:12:34.600Z,92.7
2022-08-22T07:16:37.447Z,91.9
2022-08-22T07:18:38.885Z,91.4
2022-08-22T07:20:40.299Z,90.3
2022-08-22T07:22:41.716Z,88
2022-08-22T07:24:46.392Z,85
2022-08-22T07:26:47.824Z,84.5
2022-08-22T07:28:50.802Z,84.4
2022-08-22T07:30:50.524Z,84.3
2022-08-22T07:32:51.936Z,85.5
2022-08-22T07:34:53.253Z,85.8
2022-08-22T07:38:59.242Z,83.3
2022-08-22T07:41:00.634Z,83.2
2022-08-22T07:43:02.017Z,83.3
2022-08-22T07:44:04.390Z,83.3
2022-08-22T07:46:05.695Z,83.5
2022-08-22T07:48:07.039Z,83.6
2022-08-22T07:50:08.420Z,83.7
2022-08-22T07:52:13.037Z,84.3
2022-08-22T07:54:14.448Z,84.4
2022-08-22T07:56:15.748Z,82.9
2022-08-22T07:58:17.159Z,81.8
2022-08-22T08:00:18.569Z,81.6
2022-08-22T08:02:19.950Z,80.2
2022-08-22T08:04:21.322Z,78.8
2022-08-22T08:06:25.880Z,73.4
2022-08-22T08:08:27.255Z,72.6
2022-08-22T08:10:28.581Z,72.3
2022-08-22T08:12:29.946Z,65.2
2022-08-22T08:14:31.239Z,66.5
2022-08-22T08:16:32.625Z,66.6
2022-08-22T08:18:33.950Z,66.5
2022-08-22T08:20:38.529Z,61.3
2022-08-22T08:22:39.806Z,61.3
2022-08-22T08:24:45.838Z,60.7
2022-08-22T08:26:42.481Z,59.9
2022-08-22T08:28:43.708Z,58.6
2022-08-22T08:30:44.963Z,58.4
2022-08-22T08:32:46.209Z,58.2
2022-08-22T08:34:50.716Z,57.6
2022-08-22T08:36:51.982Z,57.4
2022-08-22T08:38:53.309Z,57.4
2022-08-22T08:39:55.545Z,57.2
2022-08-22T08:41:57.132Z,56.7
2022-08-22T08:43:57.981Z,56
2022-08-22T08:45:59.405Z,54.5
2022-08-22T08:48:03.725Z,54.3
2022-08-22T08:50:04.949Z,53.9
2022-08-22T08:52:06.176Z,53.7
2022-08-22T08:54:07.471Z,53.3
2022-08-22T08:56:08.694Z,53.2
2022-08-22T08:58:10.271Z,52.8
2022-08-22T09:00:11.141Z,52.4
2022-08-22T09:02:20.677Z,52.6
2022-08-22T09:04:16.777Z,52.8
2022-08-22T09:06:17.955Z,52.7
2022-08-22T09:08:19.179Z,52.3
2022-08-22T09:10:20.383Z,51.9
2022-08-22T09:12:21.565Z,54.5
2022-08-22T09:14:22.737Z,56.3
2022-08-22T09:16:27.204Z,57.5
2022-08-22T09:18:28.410Z,57.5
2022-08-22T09:20:29.560Z,57.5
2022-08-22T09:24:31.945Z,56.9
2022-08-22T09:26:33.140Z,56.2
2022-08-22T09:28:34.318Z,56.2
2022-08-22T09:34:41.172Z,56.9
2022-08-22T09:37:01.433Z,56.7
2022-08-22T09:39:02.672Z,56.5
2022-08-22T09:41:03.879Z,56.1
2022-08-22T09:45:09.471Z,55.4
2022-08-22T09:47:10.698Z,56
2022-08-22T09:49:11.847Z,55.7
2022-08-22T09:51:31.290Z,56
2022-08-22T09:53:14.235Z,56
2022-08-22T09:55:15.945Z,55.5
2022-08-22T09:59:21.049Z,52.2
2022-08-22T10:01:22.234Z,51.9
2022-08-22T10:03:23.415Z,51.2
2022-08-22T10:05:40.871Z,49.4
2022-08-22T10:07:25.741Z,47.1
2022-08-22T10:09:26.925Z,47
2022-08-22T10:11:31.346Z,46.9
2022-08-22T10:13:32.499Z,47
2022-08-22T10:15:33.661Z,48.3
2022-08-22T10:17:34.812Z,48.5
2022-08-22T10:21:37.236Z,48.9
2022-08-22T10:29:44.880Z,48.7
2022-08-22T10:30:47.087Z,48.8
2022-08-22T10:32:48.228Z,49.3
2022-08-22T10:34:49.334Z,49.4
2022-08-22T10:36:50.496Z,49.6
2022-08-22T10:38:54.833Z,50.7
2022-08-22T10:40:55.981Z,50.8
2022-08-22T10:42:57.124Z,50.5
2022-08-22T10:44:58.230Z,50.3
2022-08-22T10:51:01.593Z,49.3
2022-08-22T10:53:05.976Z,47.9
2022-08-22T10:55:09.819Z,47.1
2022-08-22T10:57:08.194Z,47
2022-08-22T10:59:09.325Z,47.2
2022-08-22T11:01:38.035Z,47
2022-08-22T11:03:15.124Z,47.1
2022-08-22T11:05:12.683Z,47.1
2022-08-22T11:07:17.056Z,46.9
2022-08-22T11:09:18.207Z,46.3
2022-08-22T11:11:19.330Z,46
2022-08-22T11:17:30.807Z,45.3
2022-08-22T11:19:23.798Z,45.2
2022-08-22T11:21:28.785Z,45.9
2022-08-22T11:25:38.484Z,45.8
2022-08-22T11:26:33.770Z,45.5
2022-08-22T11:28:33.707Z,45.2
2022-08-22T11:30:36.482Z,45
2022-08-22T11:32:35.911Z,44.6
2022-08-22T11:34:40.259Z,43.4
2022-08-22T11:36:41.343Z,41.6
2022-08-22T11:38:42.427Z,41.5
2022-08-22T11:40:43.525Z,41.3
2022-08-22T11:42:47.511Z,41.1
2022-08-22T11:44:50.013Z,41
2022-08-22T11:46:46.728Z,40.8
2022-08-22T11:48:51.043Z,40.4
2022-08-22T11:50:52.121Z,39.8
2022-08-22T11:52:53.209Z,39.4
2022-08-22T11:56:55.280Z,39.1
2022-08-22T11:58:56.357Z,39.1
2022-08-22T12:00:57.396Z,38.9
2022-08-22T12:03:01.882Z,38.7
2022-08-22T12:05:02.775Z,38.4
2022-08-22T12:07:03.808Z,37
2022-08-22T12:09:04.880Z,36.7
2022-08-22T12:11:05.871Z,36.4
2022-08-22T12:13:06.954Z,36.3
2022-08-22T12:15:08.920Z,36.6
2022-08-22T12:17:13.611Z,36.5
2022-08-22T12:19:13.303Z,36.5
2022-08-22T12:26:18.524Z,36.2
2022-08-22T12:28:20.487Z,36.4
2022-08-22T12:30:23.791Z,36.4
2022-08-22T12:32:27.886Z,36.4
2022-08-22T12:36:28.377Z,37.7
2022-08-22T12:38:31.264Z,37.9
2022-08-22T12:40:31.006Z,38.3
2022-08-22T12:42:31.412Z,38.3
2022-08-22T12:44:35.690Z,37.4
2022-08-22T12:46:36.706Z,37.8
2022-08-22T12:48:37.704Z,37.8
2022-08-22T12:50:38.726Z,37.9
2022-08-22T12:52:39.744Z,38.2
2022-08-22T12:54:40.718Z,38.6
2022-08-22T12:56:41.771Z,39
2022-08-22T12:58:46.054Z,40
2022-08-22T13:00:47.133Z,40.1
2022-08-22T13:02:48.093Z,40.2
2022-08-22T13:04:49.096Z,40.1
2022-08-22T13:06:50.178Z,40
2022-08-22T13:12:56.470Z,39
2022-08-22T13:14:57.491Z,38.7
2022-08-22T13:19:20.803Z,38.1
2022-08-22T13:21:21.797Z,38.3
2022-08-22T13:23:22.846Z,38.3
2022-08-22T13:25:27.174Z,38.9
2022-08-22T13:27:30.249Z,39
2022-08-22T13:31:30.260Z,39.2
2022-08-22T13:33:31.320Z,39
2022-08-22T13:35:32.475Z,38.4
2022-08-22T13:37:33.378Z,37.6
2022-08-22T13:39:37.878Z,37
2022-08-22T13:41:42.996Z,36.6
2022-08-22T13:43:39.780Z,36.4
2022-08-22T13:45:40.794Z,35.9
2022-08-22T13:47:41.854Z,35.6
2022-08-22T13:49:42.896Z,35.5
2022-08-22T13:51:43.966Z,35.1
2022-08-22T13:53:49.807Z,35
2022-08-22T13:55:49.356Z,35.4
2022-08-22T13:57:51.967Z,35.9
2022-08-22T13:59:52.683Z,36.2
2022-08-22T14:01:53.047Z,37.2
2022-08-22T14:03:53.518Z,37.5
2022-08-22T14:05:54.520Z,37.6
2022-08-22T14:07:58.870Z,37.6
2022-08-22T14:09:59.902Z,37.7
2022-08-22T14:12:00.975Z,37.7
2022-08-22T14:21:10.627Z,38.3
2022-08-22T14:23:11.717Z,38.3
2022-08-22T14:25:12.764Z,38.4
2022-08-22T14:29:14.907Z,38.5
2022-08-22T14:31:15.973Z,38.5
2022-08-22T14:33:17.067Z,38.5
2022-08-22T14:35:23.509Z,38.3
2022-08-22T14:37:22.463Z,38.2
2022-08-22T14:39:23.557Z,38.1
2022-08-22T14:41:24.611Z,38
2022-08-22T14:43:25.733Z,38.1
2022-08-22T14:45:26.765Z,38.2
2022-08-22T14:47:43.249Z,38.2
2022-08-22T14:49:32.205Z,38.2
2022-08-22T14:51:33.249Z,38.4
2022-08-22T14:53:34.320Z,38.4
2022-08-22T14:55:35.420Z,38.4
2022-08-22T14:57:36.472Z,38.6
2022-08-22T14:59:37.559Z,38.8
2022-08-22T15:01:38.656Z,38.9
2022-08-22T15:03:42.998Z,39.4
2022-08-22T15:05:45.154Z,39.6
2022-08-22T15:07:45.151Z,39.8
2022-08-22T15:08:47.328Z,39.9
2022-08-22T15:10:48.368Z,40.2
2022-08-22T15:12:49.490Z,40.2
2022-08-22T15:14:52.308Z,40.2
2022-08-22T15:16:54.901Z,40.1
2022-08-22T15:18:55.979Z,40.2
2022-08-22T15:20:57.081Z,40.2
2022-08-22T15:22:58.424Z,40.3
2022-08-22T15:24:59.266Z,40.4
2022-08-22T15:27:00.406Z,40.5
2022-08-22T15:29:01.523Z,40.8
2022-08-22T15:31:05.898Z,41
2022-08-22T15:33:07.009Z,41.1
2022-08-22T15:35:08.115Z,41
2022-08-22T15:37:14.297Z,40.9
2022-08-22T15:39:10.345Z,40.6
2022-08-22T15:41:11.467Z,40.3
2022-08-22T15:43:12.592Z,39.9
2022-08-22T15:45:16.961Z,39.6
2022-08-22T15:47:24.354Z,39.6
2022-08-22T15:49:19.180Z,39.4
2022-08-22T15:51:20.292Z,39.4
2022-08-22T15:53:21.509Z,39.2
2022-08-22T15:55:22.588Z,39
2022-08-22T15:57:23.675Z,38.8
2022-08-22T15:59:28.042Z,38.1
2022-08-22T16:01:29.218Z,37.5
2022-08-22T16:03:30.283Z,36.8
2022-08-22T16:04:32.488Z,36.3
2022-08-22T16:06:33.636Z,35.9
2022-08-22T16:08:34.732Z,35.6
2022-08-22T16:10:35.845Z,34.2
2022-08-22T16:12:40.225Z,32.5
2022-08-22T16:14:41.273Z,32
2022-08-22T16:16:42.395Z,31.8
2022-08-22T16:18:43.504Z,31.3
2022-08-22T16:20:44.635Z,31.1
2022-08-22T16:22:47.381Z,30.7
2022-08-22T16:24:46.789Z,30.7
2022-08-22T16:26:51.461Z,30.5
2022-08-22T16:28:58.317Z,30.6
2022-08-22T16:30:53.306Z,30.5
2022-08-22T16:32:54.391Z,30.4
2022-08-22T16:34:55.509Z,30.2
2022-08-22T16:36:56.566Z,29.9
2022-08-22T16:38:57.672Z,29.7
2022-08-22T16:41:01.997Z,29.5
2022-08-22T16:43:03.141Z,29.6
2022-08-22T16:45:04.579Z,29.9
2022-08-22T16:47:05.268Z,30.3
2022-08-22T16:49:06.335Z,31.8
2022-08-22T16:53:08.484Z,32.4
2022-08-22T16:55:12.831Z,32.6
2022-08-22T16:57:14.618Z,32
2022-08-22T17:01:43.117Z,30.3
2022-08-22T17:03:44.173Z,29.9
2022-08-22T17:05:45.272Z,29.6
2022-08-22T17:07:47.459Z,29.6
2022-08-22T17:09:48.532Z,29.6
2022-08-22T17:11:49.627Z,29.7
2022-08-22T17:13:50.742Z,29.9
2022-08-22T17:15:51.828Z,30.2
2022-08-22T17:21:58.367Z,30.9
2022-08-22T17:23:59.474Z,31.1
2022-08-22T17:26:00.596Z,31.4
2022-08-22T17:28:01.670Z,31.5
2022-08-22T17:30:02.775Z,31.7
2022-08-22T17:34:04.995Z,32.1
2022-08-22T17:36:26.351Z,32.5
2022-08-22T17:38:10.446Z,32.9
2022-08-22T17:40:11.586Z,32.9
2022-08-22T17:42:15.428Z,33.1
2022-08-22T17:44:13.752Z,33.2
2022-08-22T17:46:14.845Z,33.2
2022-08-22T17:50:20.341Z,33.6
2022-08-22T17:52:21.490Z,33.8
2022-08-22T17:54:22.616Z,34.3
2022-08-22T17:55:24.806Z,44.9
2022-08-22T17:57:25.907Z,44.1
2022-08-22T17:59:27.071Z,44.6
2022-08-22T18:01:28.272Z,47
2022-08-22T18:03:32.589Z,50.8
2022-08-22T18:05:33.783Z,51.1
2022-08-22T18:07:34.913Z,51.5
2022-08-22T18:09:36.052Z,51.7
2022-08-22T18:11:40.063Z,51.4
2022-08-22T18:13:38.386Z,50.2
2022-08-22T18:15:39.603Z,56.6
2022-08-22T18:17:44.011Z,57.9
2022-08-22T18:19:45.203Z,58.3
2022-08-22T18:21:46.386Z,58.2
2022-08-22T18:23:49.171Z,58.7
2022-08-22T18:25:50.397Z,57.9
2022-08-22T18:29:52.813Z,62.1
2022-08-22T18:33:58.627Z,64.1
2022-08-22T18:44:04.965Z,68
2022-08-22T18:46:09.535Z,69.4
2022-08-22T18:48:10.878Z,69.8
2022-08-22T18:50:12.150Z,70.4
2022-08-22T18:51:14.397Z,71.4
2022-08-22T18:53:15.655Z,71.7
2022-08-22T18:55:16.949Z,72.1
2022-08-22T18:57:18.367Z,72.6
2022-08-22T18:59:23.040Z,73.9
2022-08-22T19:07:28.549Z,78.2
2022-08-22T19:21:41.734Z,83.8
2022-08-22T19:23:43.232Z,84.2
2022-08-22T19:27:49.354Z,85.5
2022-08-22T19:31:52.219Z,86.1
2022-08-22T19:35:55.102Z,86.7
2022-08-22T19:37:56.594Z,87.5
2022-08-22T19:39:58.061Z,88.1
2022-08-22T19:42:02.775Z,88.8
2022-08-22T19:44:04.229Z,89.1
2022-08-22T19:46:05.641Z,89.6
2022-08-22T19:47:08.068Z,89.7
2022-08-22T19:49:09.515Z,89.7
2022-08-22T19:51:10.966Z,89.6
2022-08-22T19:53:12.391Z,89.6
2022-08-22T19:57:18.610Z,89.7
2022-08-22T19:59:20.119Z,89.9
2022-08-22T20:01:21.594Z,90.3
2022-08-22T20:03:22.972Z,90.6
2022-08-22T20:05:24.437Z,90.9
2022-08-22T20:09:30.732Z,91.8
2022-08-22T20:11:32.156Z,92.1
2022-08-22T20:13:33.612Z,92.2
2022-08-22T20:19:37.963Z,92.8
2022-08-22T20:21:39.432Z,92.9
2022-08-22T20:33:51.529Z,93.5
2022-08-22T20:35:52.964Z,93.8
2022-08-22T20:38:06.322Z,94.6
2022-08-22T20:39:59.252Z,94.9
2022-08-22T20:42:00.647Z,95.2
2022-08-22T20:50:31.281Z,95.6
2022-08-22T21:00:38.764Z,96
2022-08-22T21:02:40.162Z,95.8
2022-08-22T21:04:44.875Z,95.7
2022-08-22T21:06:46.344Z,95.8
2022-08-22T21:08:47.816Z,96.1
2022-08-22T21:10:49.312Z,96.4
2022-08-22T21:12:50.803Z,96.7
2022-08-22T21:14:52.269Z,96.7
2022-08-22T21:16:53.725Z,96.9
2022-08-22T21:18:58.502Z,97.1
2022-08-22T21:20:59.994Z,97.3
2022-08-22T21:23:01.446Z,97.6
2022-08-22T21:25:02.954Z,98
2022-08-22T21:29:05.889Z,98.7
2022-08-22T21:33:12.144Z,99.1
2022-08-22T21:35:13.622Z,99.1
2022-08-22T21:38:17.494Z,99.1
2022-08-22T21:40:19.037Z,99.3
2022-08-22T21:42:20.435Z,99.4
2022-08-22T21:46:26.717Z,99.9
2022-08-22T21:48:28.169Z,99.9
2022-08-22T21:50:29.641Z,99.9
2022-08-22T21:52:31.121Z,99.9
2022-08-22T21:54:32.598Z,99.9
2022-08-22T21:56:34.106Z,99.9
2022-08-22T22:00:40.340Z,99.9
2022-08-22T22:02:41.781Z,99.9
2022-08-22T22:06:44.759Z,99.9
2022-08-22T22:08:46.224Z,99.9
2022-08-22T22:10:47.738Z,99.9
2022-08-22T22:12:49.179Z,99.9
2022-08-22T22:14:53.982Z,99.9
2022-08-22T22:16:55.432Z,99.9
2022-08-22T22:18:56.925Z,99.9
2022-08-22T22:20:58.387Z,99.9
2022-08-22T22:22:59.866Z,99.9
2022-08-22T22:25:01.339Z,99.9
2022-08-22T22:27:02.839Z,99.9
2022-08-22T22:29:07.591Z,99.9
2022-08-22T22:31:09.060Z,99.9
2022-08-22T22:33:10.554Z,99.9
2022-08-22T22:34:12.901Z,99.9
2022-08-22T22:36:14.409Z,99.9
2022-08-22T22:42:22.148Z,99.9
2022-08-22T22:50:28.082Z,99.9
2022-08-22T22:52:29.554Z,99.9
2022-08-22T22:56:35.789Z,99.9
2022-08-22T23:00:38.844Z,99.9
2022-08-22T23:02:40.296Z,99.9
2022-08-22T23:04:41.724Z,99.9
2022-08-22T23:06:43.185Z,99.9
2022-08-22T23:08:44.688Z,99.9
2022-08-22T23:10:49.473Z,99.9
2022-08-22T23:12:50.956Z,99.9
2022-08-22T23:14:52.440Z,99.9
2022-08-22T23:16:53.886Z,99.9
2022-08-22T23:18:55.369Z,99.9
2022-08-22T23:20:56.859Z,99.9
2022-08-22T23:22:58.371Z,99.9
2022-08-22T23:25:03.154Z,99.9
2022-08-22T23:27:04.567Z,99.9
2022-08-22T23:29:06.091Z,99.9
2022-08-22T23:30:08.451Z,99.9
2022-08-22T23:34:11.409Z,99.9
2022-08-22T23:42:20.650Z,99.9
2022-08-22T23:44:22.142Z,99.9
2022-08-22T23:46:23.597Z,99.9
2022-08-22T23:48:25.071Z,99.9
2022-08-22T23:50:26.557Z,99.9
2022-08-22T23:52:31.397Z,99.9
2022-08-22T23:54:32.828Z,99.9
2022-08-22T23:56:34.299Z,99.9
2022-08-22T23:58:35.790Z,99.9
